Charlotte, Michigan
Current Conditions -  °F | °C
As of 4:55 AM on Sunday 21 Dec 2014 (Local Time) from KFPK Reporting Station
Haze Haze  
Wind Chill: 28°   Ceiling: 6000
Heat Index: 28°   Visibility: 5mi
Dew Point: 25°   Wind: 0mph
Humidity: 90%   Direction: NA
Pressure: 30.25"   Gusts: NA
Location:  42.56°N, 84.83°W
Report Text: KFPK 210955Z AUTO 00000KT 5SM BR SCT021 OVC060 M02/M04 A3025 RMK AO2 T10251040
Loading
Personal Weather Stations






























Interactive Weather Map New forecast layout! Learn more

10-Day Weather Forecast

Advertisements
Track Severe Weather on mobile